createdAt,value
2019-02-20T00:01:41.924Z,95714.00
2019-02-20T00:04:11.441Z,95721.53
2019-02-20T00:06:40.805Z,95708.59
2019-02-20T00:09:10.207Z,95710.67
2019-02-20T00:11:39.706Z,95722.36
2019-02-20T00:14:09.031Z,95713.72
2019-02-20T00:16:38.461Z,95709.45
2019-02-20T00:19:07.993Z,95715.52
2019-02-20T00:21:37.460Z,95719.26
2019-02-20T00:24:06.996Z,95712.81
2019-02-20T00:26:36.383Z,95717.12
2019-02-20T00:29:06.612Z,95718.83
2019-02-20T00:31:36.126Z,95711.97
2019-02-20T00:34:05.621Z,95717.23
2019-02-20T00:36:35.078Z,95716.64
2019-02-20T00:39:06.669Z,95710.92
2019-02-20T00:41:36.124Z,95714.16
2019-02-20T00:44:33.365Z,95711.39
2019-02-20T00:47:12.202Z,95710.87
2019-02-20T00:49:45.146Z,95707.89
2019-02-20T00:52:37.013Z,95703.69
2019-02-20T00:55:07.505Z,95709.94
2019-02-20T00:57:36.951Z,95707.02
2019-02-20T01:00:07.170Z,95698.28
2019-02-20T01:02:36.617Z,95699.97
2019-02-20T01:05:07.019Z,95699.97
2019-02-20T01:07:36.478Z,95694.10
2019-02-20T01:10:06.435Z,95694.10
2019-02-20T01:12:35.894Z,95691.32
2019-02-20T01:15:05.788Z,95695.93
2019-02-20T01:17:35.298Z,95695.93
2019-02-20T01:20:05.013Z,95697.98
2019-02-20T01:22:34.413Z,95681.84
2019-02-20T01:25:03.723Z,95695.11
2019-02-20T01:27:33.098Z,95695.11
2019-02-20T01:30:02.439Z,95695.16
2019-02-20T01:32:32.057Z,95698.88
2019-02-20T01:35:01.441Z,95694.92
2019-02-20T01:37:30.819Z,95693.88
2019-02-20T01:40:00.262Z,95689.02
2019-02-20T01:42:29.602Z,95696.72
2019-02-20T01:44:58.984Z,95696.72
2019-02-20T01:47:35.508Z,95688.48
2019-02-20T01:50:05.513Z,95691.16
2019-02-20T01:52:34.884Z,95691.16
2019-02-20T01:55:04.284Z,95688.98
2019-02-20T01:57:33.669Z,95688.98
2019-02-20T02:00:02.983Z,95688.19
2019-02-20T02:02:32.350Z,95679.00
2019-02-20T02:05:01.722Z,95681.02
2019-02-20T02:07:31.093Z,95681.02
2019-02-20T02:10:00.542Z,95678.84
2019-02-20T02:12:29.922Z,95686.25
2019-02-20T02:14:59.308Z,95686.25
2019-02-20T02:17:28.681Z,95666.15
2019-02-20T02:19:58.358Z,95677.98
2019-02-20T02:22:27.710Z,95681.55
2019-02-20T02:24:57.063Z,95687.88
2019-02-20T02:27:26.443Z,95674.45
2019-02-20T02:29:55.758Z,95682.44
2019-02-20T02:32:25.093Z,95685.63
2019-02-20T02:34:54.397Z,95685.59
2019-02-20T02:37:23.756Z,95688.27
2019-02-20T02:39:53.108Z,95681.09
2019-02-20T02:42:22.430Z,95674.98
2019-02-20T02:44:51.771Z,95684.86
2019-02-20T02:47:21.222Z,95684.31
2019-02-20T02:49:50.570Z,95688.83
2019-02-20T02:52:19.934Z,95681.42
2019-02-20T02:54:49.464Z,95672.44
2019-02-20T02:57:18.847Z,95678.17
2019-02-20T02:59:48.235Z,95681.94
2019-02-20T03:02:18.079Z,95676.95
2019-02-20T03:04:47.376Z,95677.47
2019-02-20T03:07:16.702Z,95678.83
2019-02-20T03:09:46.032Z,95691.93
2019-02-20T03:12:15.354Z,95686.13
2019-02-20T03:14:44.716Z,95689.08
2019-02-20T03:17:14.055Z,95693.09
2019-02-20T03:19:43.398Z,95698.17
2019-02-20T03:22:12.748Z,95689.66
2019-02-20T03:24:42.123Z,95687.25
2019-02-20T03:27:11.496Z,95688.05
2019-02-20T03:29:41.248Z,95690.19
2019-02-20T03:32:10.631Z,95683.26
2019-02-20T03:34:39.945Z,95693.66
2019-02-20T03:37:09.290Z,95702.39
2019-02-20T03:39:38.594Z,95692.84
2019-02-20T03:42:07.941Z,95700.83
2019-02-20T03:44:37.288Z,95706.39
2019-02-20T03:47:06.748Z,95698.68
2019-02-20T03:49:36.094Z,95687.52
2019-02-20T03:52:05.445Z,95692.05
2019-02-20T03:54:34.836Z,95699.74
2019-02-20T03:57:04.217Z,95682.98
2019-02-20T03:59:33.708Z,95680.05
2019-02-20T04:02:03.095Z,95684.58
2019-02-20T04:04:32.434Z,95676.59
2019-02-20T04:07:01.766Z,95672.61
2019-02-20T04:09:31.107Z,95665.45
2019-02-20T04:12:00.406Z,95668.89
2019-02-20T04:14:29.970Z,95668.34
2019-02-20T04:16:59.301Z,95672.91
2019-02-20T04:19:28.622Z,95680.88
2019-02-20T04:21:57.982Z,95681.16
2019-02-20T04:24:27.332Z,95681.95
2019-02-20T04:26:56.659Z,95691.27
2019-02-20T04:29:26.020Z,95694.45
2019-02-20T04:31:55.454Z,95690.20
2019-02-20T04:34:24.898Z,95686.20
2019-02-20T04:36:54.237Z,95693.36
2019-02-20T04:39:23.557Z,95693.63
2019-02-20T04:41:52.921Z,95691.73
2019-02-20T04:44:22.531Z,95685.05
2019-02-20T04:46:52.244Z,95676.25
2019-02-20T04:49:21.609Z,95676.03
2019-02-20T04:51:51.008Z,95676.88
2019-02-20T04:54:20.356Z,95677.44
2019-02-20T04:56:49.787Z,95685.95
2019-02-20T04:59:19.148Z,95676.91
2019-02-20T05:01:49.218Z,95684.88
2019-02-20T05:04:18.587Z,95688.60
2019-02-20T05:06:47.958Z,95692.06
2019-02-20T05:09:17.312Z,95689.38
2019-02-20T05:11:46.724Z,95689.14
2019-02-20T05:14:16.033Z,95698.69
2019-02-20T05:16:45.377Z,95698.66
2019-02-20T05:19:14.738Z,95692.80
2019-02-20T05:21:44.045Z,95699.20
2019-02-20T05:24:23.788Z,95693.11
2019-02-20T05:26:44.522Z,95695.26
2019-02-20T05:29:13.971Z,95709.58
2019-02-20T05:31:43.313Z,95704.80
2019-02-20T05:34:12.673Z,95704.53
2019-02-20T05:36:42.009Z,95711.19
2019-02-20T05:39:11.429Z,95715.70
2019-02-20T05:41:40.790Z,95714.06
2019-02-20T05:44:10.116Z,95722.98
2019-02-20T05:46:39.457Z,95724.27
2019-02-20T05:49:08.901Z,95730.42
2019-02-20T05:51:38.244Z,95730.42
2019-02-20T05:54:07.643Z,95746.35
2019-02-20T05:56:37.014Z,95746.35
2019-02-20T05:59:06.371Z,95585.12
2019-02-20T06:01:35.760Z,95745.27
2019-02-20T06:04:05.228Z,95744.39
2019-02-20T06:06:34.609Z,95752.73
2019-02-20T06:09:05.715Z,95750.55
2019-02-20T06:11:35.067Z,95747.45
2019-02-20T06:14:04.376Z,95750.81
2019-02-20T06:16:33.715Z,95750.31
2019-02-20T06:19:03.022Z,95746.38
2019-02-20T06:21:32.363Z,95750.16
2019-02-20T06:24:01.760Z,95748.48
2019-02-20T06:26:31.128Z,95754.23
2019-02-20T06:29:00.493Z,95757.73
2019-02-20T06:31:29.822Z,95772.38
2019-02-20T06:33:59.121Z,95769.76
2019-02-20T06:36:28.463Z,95772.47
2019-02-20T06:38:58.338Z,95771.70
2019-02-20T06:41:27.674Z,95778.95
2019-02-20T06:43:56.989Z,95777.03
2019-02-20T06:46:26.337Z,95779.13
2019-02-20T06:48:55.670Z,95777.92
2019-02-20T06:51:25.016Z,95782.23
2019-02-20T06:53:54.375Z,95786.33
2019-02-20T06:56:23.741Z,95789.55
2019-02-20T06:58:53.178Z,95791.03
2019-02-20T07:01:22.550Z,95790.17
2019-02-20T07:03:51.860Z,95796.22
2019-02-20T07:06:27.021Z,95790.27
2019-02-20T07:09:32.645Z,95788.30
2019-02-20T07:12:45.664Z,95793.78
2019-02-20T07:15:39.967Z,95792.02
2019-02-20T07:18:30.729Z,95792.09
2019-02-20T07:21:37.014Z,95792.38
2019-02-20T07:24:33.090Z,95793.56
2019-02-20T07:27:27.717Z,95792.61
2019-02-20T07:30:01.660Z,95788.75
2019-02-20T07:32:31.662Z,95792.11
2019-02-20T07:35:01.050Z,95789.34
2019-02-20T07:37:30.410Z,95786.16
2019-02-20T07:39:59.936Z,95784.56
2019-02-20T07:42:29.418Z,95786.59
2019-02-20T07:44:58.769Z,95791.22
2019-02-20T07:47:28.107Z,95792.85
2019-02-20T07:49:57.577Z,95787.21
2019-02-20T07:52:26.985Z,95791.27
2019-02-20T07:54:56.316Z,95787.88
2019-02-20T07:57:25.765Z,95786.20
2019-02-20T07:59:55.563Z,95782.22
2019-02-20T08:02:24.989Z,95787.78
2019-02-20T08:04:54.885Z,95786.06
2019-02-20T08:07:24.386Z,95780.69
2019-02-20T08:09:53.787Z,95783.52
2019-02-20T08:12:23.402Z,95783.52
2019-02-20T08:14:52.741Z,95784.11
2019-02-20T08:17:22.099Z,95784.16
2019-02-20T08:19:51.534Z,95786.55
2019-02-20T08:22:20.912Z,95777.53
2019-02-20T08:24:50.327Z,95771.23
2019-02-20T08:27:19.671Z,95779.42
2019-02-20T08:29:49.027Z,95779.20
2019-02-20T08:32:18.505Z,95776.78
2019-02-20T08:34:47.876Z,95772.83
2019-02-20T08:37:17.251Z,95764.84
2019-02-20T08:39:46.605Z,95771.41
2019-02-20T08:42:16.125Z,95771.58
2019-02-20T08:44:45.788Z,95770.98
2019-02-20T08:47:15.183Z,95774.31
2019-02-20T08:49:44.827Z,95781.34
2019-02-20T08:52:14.227Z,95783.50
2019-02-20T08:54:43.606Z,95772.88
2019-02-20T08:57:12.919Z,95782.79
2019-02-20T08:59:42.272Z,95777.54
2019-02-20T09:02:11.686Z,95781.07
2019-02-20T09:04:41.028Z,95775.41
2019-02-20T09:07:10.748Z,95770.72
2019-02-20T09:09:40.118Z,95773.20
2019-02-20T09:12:09.510Z,95768.63
2019-02-20T09:14:38.879Z,95766.77
2019-02-20T09:17:08.219Z,95770.61
2019-02-20T09:19:37.563Z,95772.64
2019-02-20T09:22:06.986Z,95767.07
2019-02-20T09:24:36.346Z,95762.76
2019-02-20T09:27:05.715Z,95757.00
2019-02-20T09:29:35.064Z,95756.42
2019-02-20T09:32:04.427Z,95754.72
2019-02-20T09:34:33.795Z,95757.45
2019-02-20T09:37:03.235Z,95754.42
2019-02-20T09:39:38.273Z,95752.59
2019-02-20T09:42:12.608Z,95757.97
2019-02-20T09:44:46.827Z,95749.67
2019-02-20T09:47:16.267Z,95750.59
2019-02-20T09:49:45.661Z,95749.21
2019-02-20T09:52:15.045Z,95734.11
2019-02-20T09:54:44.531Z,95733.84
2019-02-20T09:57:14.046Z,95734.98
2019-02-20T09:59:43.414Z,95731.05
2019-02-20T10:02:12.809Z,95719.63
2019-02-20T10:04:42.154Z,95723.65
2019-02-20T10:07:12.024Z,95710.27
2019-02-20T10:09:41.399Z,95711.64
2019-02-20T10:12:10.773Z,95717.44
2019-02-20T10:14:40.464Z,95703.59
2019-02-20T10:17:09.890Z,95707.63
2019-02-20T10:19:39.232Z,95696.95
2019-02-20T10:22:08.571Z,95698.67
2019-02-20T10:24:37.966Z,95688.36
2019-02-20T10:27:07.337Z,95681.67
2019-02-20T10:29:36.659Z,95679.03
2019-02-20T10:32:06.065Z,95679.94
2019-02-20T10:34:35.464Z,95668.14
2019-02-20T10:37:04.810Z,95661.81
2019-02-20T10:39:34.276Z,95657.25
2019-02-20T10:42:03.662Z,95661.83
2019-02-20T10:44:33.046Z,95662.90
2019-02-20T10:47:02.706Z,95664.33
2019-02-20T10:49:32.067Z,95651.14
2019-02-20T10:52:01.451Z,95651.34
2019-02-20T10:54:30.799Z,95651.58
2019-02-20T10:57:00.165Z,95640.83
2019-02-20T10:59:29.599Z,95632.80
2019-02-20T11:01:58.978Z,95646.41
2019-02-20T11:04:28.448Z,95638.88
2019-02-20T11:06:57.806Z,95628.51
2019-02-20T11:09:27.180Z,95631.45
2019-02-20T11:11:56.556Z,95619.69
2019-02-20T11:14:25.918Z,95626.96
2019-02-20T11:16:55.279Z,95630.44
2019-02-20T11:19:24.607Z,95622.91
2019-02-20T11:21:53.952Z,95629.56
2019-02-20T11:24:23.336Z,95613.42
2019-02-20T11:26:55.126Z,95631.01
2019-02-20T11:29:23.767Z,95634.52
2019-02-20T11:31:54.111Z,95632.61
2019-02-20T11:34:23.460Z,95624.08
2019-02-20T11:36:52.779Z,95624.72
2019-02-20T11:39:22.220Z,95621.64
2019-02-20T11:41:51.683Z,95631.63
2019-02-20T11:44:21.386Z,95616.20
2019-02-20T11:46:50.798Z,95619.80
2019-02-20T11:49:20.235Z,95619.69
2019-02-20T11:51:49.581Z,95615.33
2019-02-20T11:54:18.968Z,95618.26
2019-02-20T11:56:48.302Z,95613.25
2019-02-20T11:59:17.711Z,95601.76
2019-02-20T12:01:47.083Z,95607.94
2019-02-20T12:04:16.420Z,95607.06
2019-02-20T12:06:45.766Z,95612.11
2019-02-20T12:09:15.123Z,95607.18
2019-02-20T12:11:44.501Z,95611.98
2019-02-20T12:14:13.871Z,95605.58
2019-02-20T12:16:43.286Z,95608.19
2019-02-20T12:19:12.664Z,95609.55
2019-02-20T12:21:41.998Z,95608.72
2019-02-20T12:24:11.947Z,95607.18
2019-02-20T12:26:41.526Z,95608.84
2019-02-20T12:29:11.325Z,95611.94
2019-02-20T12:31:40.722Z,95609.06
2019-02-20T12:34:10.111Z,95607.84
2019-02-20T12:36:39.489Z,95617.95
2019-02-20T12:39:08.861Z,95602.27
2019-02-20T12:41:38.203Z,95602.02
2019-02-20T12:44:07.583Z,95601.22
2019-02-20T12:46:36.974Z,95602.27
2019-02-20T12:49:06.361Z,95595.31
2019-02-20T12:51:36.639Z,95596.64
2019-02-20T12:54:06.053Z,95589.52
2019-02-20T12:56:43.463Z,95587.90
2019-02-20T12:59:07.946Z,95595.77
2019-02-20T13:01:37.502Z,95591.07
2019-02-20T13:04:06.857Z,95597.08
2019-02-20T13:06:36.193Z,95593.27
2019-02-20T13:09:07.815Z,95593.27
2019-02-20T13:11:37.139Z,95594.63
2019-02-20T13:14:06.573Z,95596.87
2019-02-20T13:16:35.946Z,95597.77
2019-02-20T13:19:05.325Z,95592.42
2019-02-20T13:21:34.731Z,95596.94
2019-02-20T13:24:04.121Z,95593.56
2019-02-20T13:26:52.797Z,95588.99
2019-02-20T13:29:16.799Z,95593.23
2019-02-20T13:31:46.289Z,95590.13
2019-02-20T13:34:15.623Z,95605.28
2019-02-20T13:36:44.977Z,95594.32
2019-02-20T13:39:14.316Z,95599.12
2019-02-20T13:41:44.497Z,95596.77
2019-02-20T13:44:13.960Z,95604.30
2019-02-20T13:46:43.360Z,95608.46
2019-02-20T13:49:13.130Z,95600.58
2019-02-20T13:51:42.574Z,95595.87
2019-02-20T13:54:11.957Z,95608.23
2019-02-20T13:56:41.286Z,95609.06
2019-02-20T13:59:10.629Z,95610.77
2019-02-20T14:01:39.992Z,95607.96
2019-02-20T14:04:09.311Z,95610.87
2019-02-20T14:06:38.624Z,95610.42
2019-02-20T14:09:08.251Z,95614.80
2019-02-20T14:11:37.580Z,95618.14
2019-02-20T14:14:08.802Z,95620.38
2019-02-20T14:16:38.071Z,95619.45
2019-02-20T14:19:07.435Z,95613.83
2019-02-20T14:21:36.791Z,95616.63
2019-02-20T14:24:06.237Z,95627.83
2019-02-20T14:26:37.815Z,95624.52
2019-02-20T14:29:07.215Z,95629.92
2019-02-20T14:31:36.543Z,95624.13
2019-02-20T14:34:05.956Z,95629.69
2019-02-20T14:36:35.289Z,95634.98
2019-02-20T14:39:05.683Z,95631.30
2019-02-20T14:41:35.092Z,95624.22
2019-02-20T14:44:04.423Z,95618.84
2019-02-20T14:46:33.795Z,95627.22
2019-02-20T14:49:03.154Z,95636.52
2019-02-20T14:51:34.061Z,95634.52
2019-02-20T14:54:03.508Z,95635.80
2019-02-20T14:56:32.834Z,95630.05
2019-02-20T14:59:02.287Z,95636.59
2019-02-20T15:01:32.060Z,95640.00
2019-02-20T15:04:01.363Z,95641.61
2019-02-20T15:06:31.098Z,95634.86
2019-02-20T15:09:00.460Z,95631.23
2019-02-20T15:11:29.835Z,95635.20
2019-02-20T15:13:59.185Z,95638.48
2019-02-20T15:16:28.541Z,95638.25
2019-02-20T15:18:57.917Z,95641.20
2019-02-20T15:21:27.411Z,95639.38
2019-02-20T15:23:57.123Z,95641.75
2019-02-20T15:26:26.459Z,95655.38
2019-02-20T15:28:55.762Z,95645.67
2019-02-20T15:31:33.485Z,95644.86
2019-02-20T15:33:56.222Z,95657.84
2019-02-20T15:36:25.957Z,95648.36
2019-02-20T15:38:55.318Z,95652.30
2019-02-20T15:41:24.643Z,95656.25
2019-02-20T15:43:54.027Z,95655.56
2019-02-20T15:46:23.382Z,95657.89
2019-02-20T15:48:52.829Z,95658.47
2019-02-20T15:51:22.487Z,95659.80
2019-02-20T15:53:51.872Z,95660.00
2019-02-20T15:56:21.287Z,95663.50
2019-02-20T15:58:51.729Z,95665.97
2019-02-20T16:01:21.063Z,95669.88
2019-02-20T16:03:50.395Z,95664.92
2019-02-20T16:06:19.831Z,95672.58
2019-02-20T16:08:49.311Z,95671.44
2019-02-20T16:11:18.647Z,95684.05
2019-02-20T16:13:48.039Z,95695.02
2019-02-20T16:16:17.373Z,95693.31
2019-02-20T16:18:46.745Z,95695.75
2019-02-20T16:21:16.124Z,95698.65
2019-02-20T16:23:45.646Z,95706.64
2019-02-20T16:26:15.028Z,95708.73
2019-02-20T16:28:44.402Z,95713.47
2019-02-20T16:31:13.738Z,95718.70
2019-02-20T16:33:43.128Z,95723.56
2019-02-20T16:36:12.470Z,95727.58
2019-02-20T16:38:42.090Z,95729.23
2019-02-20T16:41:11.484Z,95727.61
2019-02-20T16:43:42.432Z,95734.79
2019-02-20T16:46:11.832Z,95737.92
2019-02-20T16:48:43.149Z,95741.78
2019-02-20T16:51:12.626Z,95744.87
2019-02-20T16:53:42.397Z,95747.02
2019-02-20T16:56:11.868Z,95743.23
2019-02-20T16:58:43.115Z,95751.50
2019-02-20T17:01:12.272Z,95759.70
2019-02-20T17:03:41.795Z,95630.06
2019-02-20T17:06:12.714Z,95765.86
2019-02-20T17:08:42.323Z,95771.12
2019-02-20T17:11:11.675Z,95766.98
2019-02-20T17:13:41.017Z,95770.10
2019-02-20T17:16:10.502Z,95773.69
2019-02-20T17:18:40.054Z,95777.02
2019-02-20T17:21:09.522Z,95777.98
2019-02-20T17:23:39.067Z,95791.33
2019-02-20T17:26:08.501Z,95793.39
2019-02-20T17:28:37.856Z,95798.15
2019-02-20T17:31:07.267Z,95801.58
2019-02-20T17:33:36.626Z,95802.29
2019-02-20T17:36:05.979Z,95801.42
2019-02-20T17:38:35.700Z,95801.72
2019-02-20T17:41:05.368Z,95804.66
2019-02-20T17:43:34.748Z,95810.60
2019-02-20T17:46:04.236Z,95809.81
2019-02-20T17:48:33.591Z,95821.25
2019-02-20T17:51:02.979Z,95823.25
2019-02-20T17:53:33.154Z,95828.31
2019-02-20T17:56:02.589Z,95826.86
2019-02-20T17:58:32.003Z,95824.08
2019-02-20T18:01:03.047Z,95830.96
2019-02-20T18:03:32.377Z,95834.34
2019-02-20T18:06:01.710Z,95839.10
2019-02-20T18:08:31.398Z,95836.91
2019-02-20T18:11:01.534Z,95846.63
2019-02-20T18:13:31.488Z,95848.46
2019-02-20T18:16:00.843Z,95844.23
2019-02-20T18:18:30.507Z,95853.17
2019-02-20T18:20:59.864Z,95857.06
2019-02-20T18:23:29.566Z,95857.28
2019-02-20T18:25:58.959Z,95855.94
2019-02-20T18:28:28.289Z,95848.41
2019-02-20T18:30:57.659Z,95851.30
2019-02-20T18:33:27.013Z,95866.00
2019-02-20T18:36:01.618Z,95860.37
2019-02-20T18:38:30.987Z,95862.99
2019-02-20T18:41:00.344Z,95865.39
2019-02-20T18:43:29.710Z,95863.73
2019-02-20T18:45:59.044Z,95867.70
2019-02-20T18:48:28.406Z,95870.23
2019-02-20T18:50:57.760Z,95863.44
2019-02-20T18:53:27.079Z,95873.73
2019-02-20T18:55:56.572Z,95879.11
2019-02-20T18:58:33.662Z,95880.10
2019-02-20T19:00:59.027Z,95890.80
2019-02-20T19:03:28.539Z,95886.28
2019-02-20T19:05:57.872Z,95894.97
2019-02-20T19:08:44.831Z,95896.27
2019-02-20T19:11:22.230Z,95900.84
2019-02-20T19:14:03.021Z,95900.65
2019-02-20T19:17:08.145Z,95895.27
2019-02-20T19:20:04.204Z,95903.46
2019-02-20T19:22:45.409Z,95903.72
2019-02-20T19:25:57.607Z,95909.77
2019-02-20T19:28:44.043Z,95911.68
2019-02-20T19:32:00.025Z,95913.38
2019-02-20T19:35:02.746Z,95913.14
2019-02-20T19:38:07.531Z,95912.66
2019-02-20T19:41:06.957Z,95917.03
2019-02-20T19:44:02.632Z,95920.84
2019-02-20T19:47:13.246Z,95919.84
2019-02-20T19:50:33.246Z,95923.38
2019-02-20T19:53:34.902Z,95921.81
2019-02-20T19:56:34.307Z,95917.52
2019-02-20T19:59:44.729Z,95931.87
2019-02-20T20:03:10.142Z,95924.61
2019-02-20T20:06:31.707Z,95926.11
2019-02-20T20:09:30.844Z,95921.38
2019-02-20T20:12:39.948Z,95932.02
2019-02-20T20:15:23.026Z,95926.52
2019-02-20T20:18:28.987Z,95926.94
2019-02-20T20:21:41.722Z,95927.31
2019-02-20T20:24:54.618Z,95926.98
2019-02-20T20:28:16.351Z,95932.20
2019-02-20T20:31:28.458Z,95930.00
2019-02-20T20:35:00.019Z,95926.88
2019-02-20T20:37:41.517Z,95926.27
2019-02-20T20:40:35.102Z,95926.92
2019-02-20T20:43:43.994Z,95929.48
2019-02-20T20:46:50.071Z,95925.02
2019-02-20T20:49:35.269Z,95933.14
2019-02-20T20:52:46.603Z,95933.53
2019-02-20T20:56:21.319Z,95937.12
2019-02-20T20:59:20.760Z,95939.80
2019-02-20T21:01:55.326Z,95944.69
2019-02-20T21:05:00.687Z,95942.39
2019-02-20T21:07:52.848Z,95939.70
2019-02-20T21:10:54.213Z,95946.81
2019-02-20T21:13:50.064Z,95950.84
2019-02-20T21:17:06.403Z,95949.32
2019-02-20T21:19:56.476Z,95949.27
2019-02-20T21:23:19.860Z,95952.66
2019-02-20T21:26:30.176Z,95958.30
2019-02-20T21:29:30.734Z,95966.53
2019-02-20T21:32:43.416Z,95959.81
2019-02-20T21:35:52.955Z,95961.88
2019-02-20T21:38:49.422Z,95965.97
2019-02-20T21:41:58.733Z,95962.20
2019-02-20T21:44:45.761Z,95959.22
2019-02-20T21:48:01.021Z,95959.27
2019-02-20T21:51:20.587Z,95966.48
2019-02-20T21:54:58.418Z,95966.30
2019-02-20T21:58:05.447Z,95967.77
2019-02-20T22:01:04.966Z,95968.50
2019-02-20T22:04:07.345Z,95970.19
2019-02-20T22:07:20.544Z,95972.77
2019-02-20T22:10:29.682Z,95973.56
2019-02-20T22:13:42.005Z,95985.05
2019-02-20T22:16:40.977Z,95972.77
2019-02-20T22:20:00.514Z,95991.65
2019-02-20T22:23:14.142Z,95988.06
2019-02-20T22:25:57.241Z,95982.88
2019-02-20T22:29:05.031Z,95987.86
2019-02-20T22:32:24.360Z,95994.69
2019-02-20T22:35:21.979Z,95994.52
2019-02-20T22:38:41.360Z,95990.93
2019-02-20T22:42:06.938Z,95993.70
2019-02-20T22:45:17.739Z,95986.69
2019-02-20T22:48:09.768Z,95990.17
2019-02-20T22:51:16.555Z,95979.61
2019-02-20T22:54:45.407Z,95983.41
2019-02-20T22:57:42.845Z,95976.56
2019-02-20T23:01:08.051Z,95979.88
2019-02-20T23:03:57.725Z,95978.12
2019-02-20T23:06:58.847Z,95982.47
2019-02-20T23:09:59.305Z,95977.73
2019-02-20T23:12:54.351Z,95977.65
2019-02-20T23:15:23.699Z,95983.38
2019-02-20T23:17:53.051Z,95986.19
2019-02-20T23:20:22.396Z,95984.84
2019-02-20T23:22:51.735Z,95986.68
2019-02-20T23:25:21.079Z,95985.57
2019-02-20T23:27:50.514Z,95979.02
2019-02-20T23:30:19.887Z,95984.63
2019-02-20T23:32:49.231Z,95982.02
2019-02-20T23:35:18.584Z,95987.58
2019-02-20T23:37:47.963Z,95983.80
2019-02-20T23:40:17.369Z,95984.89
2019-02-20T23:42:49.001Z,95979.83
2019-02-20T23:45:17.845Z,95983.64
2019-02-20T23:47:47.169Z,95987.78
2019-02-20T23:50:16.501Z,95983.00
2019-02-20T23:52:45.845Z,95989.72
2019-02-20T23:55:15.202Z,95993.35
2019-02-20T23:57:44.543Z,95992.81
